Climatologie pour Saint-Brevin les Pins
Jour • Résumé pour juin 29, 2017 Système :  Métrique    Anglais   Mixte
« - 1 jour
+ 1 jour »
Jour Semaine Mois Année Personnalisé
  Maximum : Minimum : Moyenne :
Température sous abri : -17.8 °C -9.8 °C -8.3 °C
Point de rosée : -17.8 °C -11.5 °C -10.2 °C
Humidité : Humidity % 67 % 80 %
Vitesse du vent : 0 km/h 0 km/h 14.5 km/h
Rafale : 0 km/h - -
Direction :- - West
Pression : 0 hPa 33788.9 hPa -
Précipitations : 25.4 mm    
Historical Graphs
 
 
Tableau de données pour juin 29, 2017
Heure Tempé Pt rosée Pression Vent Vitesse Rafale Humidité Taux pluie (/hr) Soleil
-17.8 °C -17.8 °C 0 hPa Calm     Humidity % 0 mm SolarRadiationWatts/m^2 W/m2 Conditions
00:00 -8.4 °C -10.9 °C 33880.3 hPa NNW 10.3 km/h 25.9 km/h 75 % 0 mm 0 W/m2
00:10 -8.6 °C -10.9 °C 33880.3 hPa NW 20.8 km/h 31.1 km/h 76 % 0 mm 0 W/m2
00:15 -8.6 °C -10.9 °C 33880.3 hPa NW 25.9 km/h 36.2 km/h 76 % 0 mm 0 W/m2
00:20 -8.6 °C -10.9 °C 33880.3 hPa WNW 7.7 km/h 38.8 km/h 76 % 0 mm 0 W/m2
00:25 -8.7 °C -10.8 °C 33880.3 hPa NW 12.9 km/h 44.1 km/h 78 % 0 mm 0 W/m2
00:30 -8.7 °C -10.8 °C 33880.3 hPa West 7.7 km/h 44.1 km/h 79 % 0 mm 0 W/m2
00:40 -8.8 °C -10.7 °C 33890.5 hPa West 10.3 km/h 33.6 km/h 80 % 0 mm 0 W/m2
00:45 -8.8 °C -10.8 °C 33890.5 hPa WNW 15.6 km/h 33.6 km/h 80 % 0 mm 0 W/m2
00:50 -8.9 °C -10.7 °C 33890.5 hPa NW 18.2 km/h 33.6 km/h 81 % 0 mm 0 W/m2
00:55 -8.9 °C -10.8 °C 33880.3 hPa NNW 7.7 km/h 28.5 km/h 81 % 0 mm 0 W/m2
01:00 -9 °C -10.9 °C 33890.5 hPa NW 31.1 km/h 38.8 km/h 80 % 0 mm 0 W/m2
01:05 -9.1 °C -11.1 °C 33890.5 hPa NW 18.2 km/h 38.8 km/h 79 % 0 mm 0 W/m2
01:15 -9.1 °C -11.4 °C 33890.5 hPa NNW 7.7 km/h 31.1 km/h 77 % 0 mm 0 W/m2
01:25 -9.3 °C -11.5 °C 33880.3 hPa Calm   20.8 km/h 77 % 0 mm 0 W/m2
01:30 -9.4 °C -11.4 °C 33880.3 hPa WNW 10.3 km/h 23.3 km/h 79 % 0 mm 0 W/m2
01:35 -9.4 °C -11.4 °C 33880.3 hPa WNW 10.3 km/h 25.9 km/h 79 % 0 mm 0 W/m2
01:40 -9.5 °C -11.5 °C 33880.3 hPa WNW 15.6 km/h 25.9 km/h 79 % 0 mm 0 W/m2
01:45 -9.4 °C -11.4 °C 33880.3 hPa WNW 18.2 km/h 25.9 km/h 79 % 0 mm 0 W/m2
01:50 -9.3 °C -11.4 °C 33880.3 hPa West 10.3 km/h 25.9 km/h 78 % 0 mm 0 W/m2
01:55 -9.3 °C -11.4 °C 33880.3 hPa WNW 5.1 km/h 25.9 km/h 78 % 0 mm 0 W/m2
02:00 -9.3 °C -11.4 °C 33880.3 hPa West 5.1 km/h 20.8 km/h 78 % 0 mm 0 W/m2
02:10 -9.1 °C -11.2 °C 33880.3 hPa WNW 2.6 km/h 20.8 km/h 79 % 0 mm 0 W/m2
02:15 -9.1 °C -11.2 °C 33880.3 hPa WNW 5.1 km/h 15.6 km/h 79 % 0 mm 0 W/m2
02:20 -9.1 °C -11.1 °C 33880.3 hPa WNW 7.7 km/h 15.6 km/h 79 % 0 mm 0 W/m2
02:25 -9.1 °C -11.2 °C 33866.8 hPa NW 7.7 km/h 15.6 km/h 78 % 0 mm 0 W/m2
02:30 -9 °C -11.2 °C 33866.8 hPa WNW 7.7 km/h 20.8 km/h 77 % 0 mm 0 W/m2
02:35 -8.9 °C -11 °C 33866.8 hPa NW 10.3 km/h 20.8 km/h 78 % 0 mm 0 W/m2
02:40 -8.9 °C -11 °C 33866.8 hPa WNW 10.3 km/h 18.2 km/h 78 % 0 mm 0 W/m2
02:45 -8.8 °C -10.8 °C 33856.6 hPa West 7.7 km/h 25.9 km/h 79 % 0 mm 0 W/m2
02:55 -8.8 °C -10.8 °C 33866.8 hPa West 18.2 km/h 33.6 km/h 80 % 0 mm 0 W/m2
03:00 -9 °C -10.9 °C 33856.6 hPa WNW 15.6 km/h 33.6 km/h 80 % 0 mm 0 W/m2
03:05 -9.1 °C -10.9 °C 33856.6 hPa WNW 7.7 km/h 31.1 km/h 81 % 0 mm 0 W/m2
03:10 -9.1 °C -10.8 °C 33856.6 hPa WNW 5.1 km/h 23.3 km/h 82 % 0 mm 0 W/m2
03:15 -9.2 °C -10.9 °C 33856.6 hPa WNW 5.1 km/h 18.2 km/h 82 % 0 mm 0 W/m2
03:20 -9.2 °C -10.9 °C 33856.6 hPa WNW 7.7 km/h 15.6 km/h 82 % 0 mm 0 W/m2
03:25 -9.2 °C -11 °C 33856.6 hPa WNW 5.1 km/h 15.6 km/h 81 % 0 mm 0 W/m2
03:30 -9.2 °C -11 °C 33843.1 hPa WNW 2.6 km/h 12.9 km/h 81 % 0 mm 0 W/m2
03:40 -9.4 °C -11.1 °C 33843.1 hPa Calm   10.3 km/h 82 % 0 mm 0 W/m2
03:45 -9.5 °C -11.1 °C 33843.1 hPa Calm   10.3 km/h 83 % 0 mm 0 W/m2
03:50 -9.6 °C -11.1 °C 33843.1 hPa Calm   5.1 km/h 83 % 0 mm 0 W/m2
03:55 -9.5 °C -11.1 °C 33843.1 hPa Calm   5.1 km/h 83 % 0 mm 0 W/m2
04:00 -9.4 °C -11.1 °C 33832.9 hPa Calm   5.1 km/h 83 % 0 mm 0 W/m2
04:05 -9.4 °C -11.1 °C 33832.9 hPa Calm   7.7 km/h 82 % 0 mm 0 W/m2
04:10 -9.3 °C -11.1 °C 33843.1 hPa Calm   7.7 km/h 82 % 0 mm 0 W/m2
04:15 -9.3 °C -11 °C 33832.9 hPa Calm   7.7 km/h 82 % 0 mm 0 W/m2
04:25 -9.3 °C -10.9 °C 33832.9 hPa Calm   2.6 km/h 83 % 0 mm 0 W/m2
04:30 -9.4 °C -11 °C 33832.9 hPa Calm   5.1 km/h 83 % 0 mm 0 W/m2
04:35 -9.3 °C -10.8 °C 33832.9 hPa WSW 5.1 km/h 15.6 km/h 83 % 0 mm 0 W/m2
04:40 -9.1 °C -10.8 °C 33832.9 hPa Calm   15.6 km/h 82 % 0 mm 0 W/m2
04:45 -9.1 °C -10.8 °C 33832.9 hPa Calm   10.3 km/h 82 % 0 mm 0 W/m2
04:50 -9.1 °C -10.7 °C 33832.9 hPa Calm   7.7 km/h 83 % 0 mm 0 W/m2
04:55 -9.1 °C -10.6 °C 33822.8 hPa Calm   7.7 km/h 84 % 0 mm 0 W/m2
05:00 -9.1 °C -10.6 °C 33822.8 hPa SSW 20.8 km/h 20.8 km/h 85 % 0 mm 0 W/m2
05:10 -9.3 °C -10.3 °C 33822.8 hPa SW 7.7 km/h 18.2 km/h 89 % 12.7 mm 0 W/m2
05:20 -9.6 °C -10.3 °C 33822.8 hPa South 12.9 km/h 18.2 km/h 91 % 12.7 mm 0 W/m2
05:30 -9.6 °C -10.2 °C 33822.8 hPa SSW 12.9 km/h 12.9 km/h 93 % 20.32 mm 0 W/m2
05:35 -9.6 °C -10.2 °C 33822.8 hPa Calm   15.6 km/h 93 % 20.32 mm 0 W/m2
05:40 -9.6 °C -10.2 °C 33809.2 hPa SSW 5.1 km/h 15.6 km/h 93 % 20.32 mm 0 W/m2
05:45 -9.6 °C -10.3 °C 33809.2 hPa Calm   10.3 km/h 93 % 20.32 mm 0 W/m2
05:55 -9.8 °C -10.3 °C 33809.2 hPa Calm   10.3 km/h 94 % 20.32 mm 0 W/m2
06:00 -9.7 °C -10.3 °C 33809.2 hPa SSW 7.7 km/h 10.3 km/h 94 % 20.32 mm 0 W/m2
06:05 -9.7 °C -10.3 °C 33809.2 hPa SSW 5.1 km/h 10.3 km/h 94 % 12.7 mm 0 W/m2
06:10 -9.7 °C -10.3 °C 33809.2 hPa SW 7.7 km/h 12.9 km/h 94 % 7.62 mm 0 W/m2
06:15 -9.7 °C -10.3 °C 33809.2 hPa Calm   18.2 km/h 94 % 7.62 mm 0 W/m2
06:20 -9.7 °C -10.2 °C 33809.2 hPa SW 10.3 km/h 20.8 km/h 94 % 7.62 mm 0 W/m2
06:30 -9.6 °C -10.1 °C 33809.2 hPa West 20.8 km/h 23.3 km/h 94 % 0 mm 5 W/m2
06:40 -9.7 °C -10.4 °C 33799.1 hPa WSW 12.9 km/h 31.1 km/h 92 % 0 mm 16 W/m2
06:45 -9.7 °C -10.4 °C 33799.1 hPa WNW 10.3 km/h 33.6 km/h 92 % 0 mm 28 W/m2
06:50 -9.6 °C -10.3 °C 33799.1 hPa WNW 12.9 km/h 33.6 km/h 92 % 0 mm 30 W/m2
06:55 -9.5 °C -10.3 °C 33799.1 hPa WNW 10.3 km/h 25.9 km/h 91 % 0 mm 37 W/m2
07:00 -9.4 °C -10.3 °C 33799.1 hPa WNW 7.7 km/h 28.5 km/h 91 % 0 mm 32 W/m2
07:05 -9.4 °C -10.3 °C 33799.1 hPa WNW 20.8 km/h 33.6 km/h 90 % 0 mm 39 W/m2
07:10 -9.3 °C -10.2 °C 33799.1 hPa West 10.3 km/h 33.6 km/h 90 % 0 mm 44 W/m2
07:15 -9.3 °C -10.2 °C 33799.1 hPa SW 12.9 km/h 31.1 km/h 90 % 0 mm 51 W/m2
07:25 -9.1 °C -10.1 °C 33799.1 hPa WNW 20.8 km/h 36.2 km/h 89 % 0 mm 77 W/m2
07:30 -9.1 °C -10.1 °C 33799.1 hPa WSW 15.6 km/h 36.2 km/h 89 % 0 mm 90 W/m2
07:35 -8.9 °C -9.9 °C 33799.1 hPa NNW 28.5 km/h 33.6 km/h 89 % 0 mm 32 W/m2
07:40 -9.1 °C -10.2 °C 33799.1 hPa West 10.3 km/h 33.6 km/h 87 % 0 mm 35 W/m2
07:45 -9.1 °C -10.2 °C 33788.9 hPa WNW 10.3 km/h 33.6 km/h 88 % 0 mm 46 W/m2
07:50 -9.1 °C -10.2 °C 33799.1 hPa WNW 10.3 km/h 33.6 km/h 88 % 0 mm 62 W/m2
07:55 -9 °C -10 °C 33799.1 hPa NW 10.3 km/h 36.2 km/h 89 % 0 mm 74 W/m2
08:00 -8.9 °C -9.9 °C 33799.1 hPa WSW 2.6 km/h 36.2 km/h 89 % 0 mm 149 W/m2
08:10 -8.7 °C -9.9 °C 33799.1 hPa West 20.8 km/h 44.1 km/h 87 % 0 mm 120 W/m2
08:15 -8.7 °C -9.9 °C 33799.1 hPa WNW 15.6 km/h 44.1 km/h 87 % 0 mm 179 W/m2
08:20 -8.7 °C -9.8 °C 33799.1 hPa NW 20.8 km/h 33.6 km/h 87 % 0 mm 151 W/m2
08:25 -8.6 °C -9.8 °C 33799.1 hPa West 7.7 km/h 33.6 km/h 87 % 0 mm 128 W/m2
08:30 -8.7 °C -9.8 °C 33799.1 hPa WNW 15.6 km/h 31.1 km/h 87 % 0 mm 146 W/m2
08:35 -8.8 °C -10 °C 33799.1 hPa West 18.2 km/h 31.1 km/h 87 % 0 mm 202 W/m2
08:40 -8.9 °C -10.1 °C 33799.1 hPa NW 12.9 km/h 31.1 km/h 88 % 0 mm 139 W/m2
08:45 -8.9 °C -9.9 °C 33799.1 hPa WNW 5.1 km/h 31.1 km/h 89 % 0 mm 237 W/m2
08:55 -8.4 °C -9.7 °C 33799.1 hPa WNW 10.3 km/h 31.1 km/h 86 % 0 mm 160 W/m2
09:00 -8.6 °C -9.8 °C 33799.1 hPa West 5.1 km/h 31.1 km/h 87 % 0 mm 139 W/m2
09:05 -8.7 °C -9.9 °C 33799.1 hPa West 10.3 km/h 25.9 km/h 87 % 0 mm 156 W/m2
09:10 -8.7 °C -9.9 °C 33799.1 hPa NW 10.3 km/h 25.9 km/h 87 % 0 mm 204 W/m2
09:15 -8.6 °C -9.7 °C 33809.2 hPa West 2.6 km/h 23.3 km/h 88 % 0 mm 178 W/m2
09:20 -8.5 °C -9.8 °C 33809.2 hPa WNW 12.9 km/h 25.9 km/h 86 % 0 mm 146 W/m2
09:25 -8 °C -9.4 °C 33809.2 hPa West 15.6 km/h 25.9 km/h 85 % 0 mm 612 W/m2
09:30 -8.1 °C -9.7 °C 33809.2 hPa WNW 12.9 km/h 31.1 km/h 83 % 0 mm 492 W/m2
09:40 -7.9 °C -9.8 °C 33809.2 hPa West 12.9 km/h 31.1 km/h 80 % 0 mm 568 W/m2
09:45 -7.8 °C -10.1 °C 33809.2 hPa WNW 12.9 km/h 31.1 km/h 77 % 0 mm 128 W/m2
09:50 -7.9 °C -10.1 °C 33809.2 hPa WNW 7.7 km/h 31.1 km/h 78 % 0 mm 538 W/m2
09:55 -7.9 °C -10.1 °C 33809.2 hPa WNW 12.9 km/h 28.5 km/h 78 % 0 mm 682 W/m2
10:00 -7.9 °C -10.2 °C 33809.2 hPa SW 12.9 km/h 28.5 km/h 77 % 0 mm 287 W/m2
10:05 -7.8 °C -9.9 °C 33809.2 hPa Calm   25.9 km/h 79 % 0 mm 708 W/m2
10:10 -7.5 °C -9.7 °C 33809.2 hPa West 5.1 km/h 25.9 km/h 78 % 0 mm 765 W/m2
10:15 -7.7 °C -10.2 °C 33822.8 hPa West 23.3 km/h 31.1 km/h 75 % 0 mm 183 W/m2
10:25 -7.8 °C -9.9 °C 33809.2 hPa WSW 7.7 km/h 33.6 km/h 78 % 0 mm 629 W/m2
10:30 -7.6 °C -9.8 °C 33809.2 hPa West 18.2 km/h 31.1 km/h 78 % 0 mm 635 W/m2
10:35 -7.4 °C -9.9 °C 33822.8 hPa WNW 12.9 km/h 33.6 km/h 76 % 0 mm 652 W/m2
10:40 -7.6 °C -9.8 °C 33822.8 hPa WSW 10.3 km/h 33.6 km/h 77 % 0 mm 666 W/m2
10:45 -7.5 °C -9.9 °C 33822.8 hPa WSW 10.3 km/h 31.1 km/h 76 % 0 mm 691 W/m2
10:50 -7.4 °C -9.8 °C 33809.2 hPa WSW 20.8 km/h 33.6 km/h 76 % 0 mm 784 W/m2
10:55 -7.3 °C -9.6 °C 33809.2 hPa WNW 12.9 km/h 33.6 km/h 77 % 0 mm 770 W/m2
11:00 -7.2 °C -9.5 °C 33822.8 hPa West 5.1 km/h 36.2 km/h 77 % 0 mm 782 W/m2
11:10 -7.3 °C -9.9 °C 33809.2 hPa WSW 12.9 km/h 38.8 km/h 74 % 0 mm 167 W/m2
11:15 -7.3 °C -9.7 °C 33809.2 hPa WSW 15.6 km/h 33.6 km/h 76 % 0 mm 838 W/m2
11:20 -7 °C -9.4 °C 33809.2 hPa West 25.9 km/h 36.2 km/h 76 % 0 mm 991 W/m2
11:25 -6.8 °C -9.2 °C 33809.2 hPa WSW 15.6 km/h 38.8 km/h 76 % 0 mm 954 W/m2
11:30 -6.4 °C -9.4 °C 33809.2 hPa WSW 12.9 km/h 38.8 km/h 71 % 0 mm 1053 W/m2
11:35 -6.9 °C -9.3 °C 33809.2 hPa WNW 7.7 km/h 33.6 km/h 76 % 0 mm 626 W/m2
11:40 -7.2 °C -9.7 °C 33809.2 hPa WSW 2.6 km/h 33.6 km/h 75 % 0 mm 383 W/m2
11:45 -7.4 °C -10 °C 33822.8 hPa WNW 18.2 km/h 31.1 km/h 75 % 0 mm 269 W/m2
11:55 -7.1 °C -9.7 °C 33822.8 hPa WSW 18.2 km/h 36.2 km/h 74 % 0 mm 963 W/m2
12:00 -7 °C -9.8 °C 33822.8 hPa West 10.3 km/h 38.8 km/h 72 % 0 mm 967 W/m2
12:05 -6.7 °C -9.6 °C 33822.8 hPa WSW 33.6 km/h 38.8 km/h 72 % 0 mm 893 W/m2
12:10 -6.6 °C -9.8 °C 33822.8 hPa WNW 28.5 km/h 36.2 km/h 70 % 0 mm 930 W/m2
12:15 -6.8 °C -9.7 °C 33822.8 hPa WSW 25.9 km/h 38.8 km/h 72 % 0 mm 881 W/m2
12:20 -6.6 °C -9.4 °C 33822.8 hPa WNW 18.2 km/h 38.8 km/h 72 % 0 mm 935 W/m2
12:25 -6.4 °C -9.9 °C 33822.8 hPa NW 7.7 km/h 36.2 km/h 67 % 0 mm 824 W/m2
12:30 -6.4 °C -9.6 °C 33822.8 hPa WSW 10.3 km/h 33.6 km/h 70 % 0 mm 886 W/m2
12:40 -6.7 °C -9.8 °C 33822.8 hPa West 23.3 km/h 38.8 km/h 70 % 0 mm 954 W/m2
12:45 -6.9 °C -10.1 °C 33822.8 hPa WSW 23.3 km/h 38.8 km/h 70 % 0 mm 779 W/m2
12:50 -7 °C -9.9 °C 33832.9 hPa WSW 20.8 km/h 44.1 km/h 72 % 0 mm 591 W/m2
12:55 -7.3 °C -10.2 °C 33832.9 hPa WSW 23.3 km/h 44.1 km/h 72 % 0 mm 359 W/m2
13:00 -7.4 °C -9.8 °C 33832.9 hPa SSW 23.3 km/h 44.1 km/h 76 % 0 mm 522 W/m2
13:05 -7.5 °C -9.9 °C 33832.9 hPa WSW 23.3 km/h 38.8 km/h 76 % 0 mm 466 W/m2
13:10 -7.3 °C -9.6 °C 33832.9 hPa SSW 18.2 km/h 44.1 km/h 77 % 0 mm 930 W/m2
13:15 -6.8 °C -9.4 °C 33832.9 hPa WSW 15.6 km/h 49.2 km/h 75 % 0 mm 951 W/m2
13:25 -6.7 °C -9.6 °C 33832.9 hPa West 18.2 km/h 51.8 km/h 72 % 0 mm 953 W/m2
13:30 -6.4 °C -9.4 °C 33822.8 hPa WSW 12.9 km/h 51.8 km/h 71 % 0 mm 954 W/m2
13:35 -6.5 °C -9.3 °C 33822.8 hPa West 25.9 km/h 41.4 km/h 73 % 0 mm 962 W/m2
13:40 -6.6 °C -9.4 °C 33822.8 hPa West 28.5 km/h 41.4 km/h 73 % 0 mm 965 W/m2
13:45 -6.7 °C -9.6 °C 33832.9 hPa WSW 15.6 km/h 41.4 km/h 72 % 0 mm 977 W/m2
13:50 -6.7 °C -9.5 °C 33832.9 hPa SSW 7.7 km/h 41.4 km/h 73 % 0 mm 919 W/m2
13:55 -6.5 °C -9.4 °C 33832.9 hPa SSW 7.7 km/h 33.6 km/h 72 % 0 mm 935 W/m2
14:00 -6.7 °C -9.6 °C 33822.8 hPa WSW 18.2 km/h 41.4 km/h 72 % 0 mm 970 W/m2
14:10 -6.7 °C -9.9 °C 33832.9 hPa SW 15.6 km/h 44.1 km/h 69 % 0 mm 958 W/m2
14:15 -6.9 °C -9.9 °C 33832.9 hPa WSW 7.7 km/h 44.1 km/h 71 % 0 mm 807 W/m2
14:20 -6.8 °C -9.7 °C 33832.9 hPa WSW 23.3 km/h 36.2 km/h 72 % 0 mm 814 W/m2
14:25 -7 °C -9.6 °C 33832.9 hPa SSW 38.8 km/h 38.8 km/h 74 % 0 mm 631 W/m2
14:30 -7.1 °C -9.8 °C 33832.9 hPa SW 10.3 km/h 46.7 km/h 74 % 0 mm 515 W/m2
14:35 -7.3 °C -9.6 °C 33843.1 hPa WNW 20.8 km/h 46.7 km/h 77 % 0 mm 301 W/m2
14:40 -7.6 °C -9.8 °C 33843.1 hPa WSW 31.1 km/h 38.8 km/h 77 % 0 mm 290 W/m2
14:45 -7.6 °C -9.8 °C 33843.1 hPa WSW 18.2 km/h 36.2 km/h 78 % 0 mm 283 W/m2
14:55 -7.3 °C -9.2 °C 33843.1 hPa WSW 5.1 km/h 44.1 km/h 80 % 0 mm 517 W/m2
15:05 -6.8 °C -9.2 °C 33843.1 hPa West 15.6 km/h 49.2 km/h 76 % 0 mm 740 W/m2
15:10 -6.6 °C -9.3 °C 33843.1 hPa WNW 36.2 km/h 49.2 km/h 74 % 0 mm 893 W/m2
15:15 -6.6 °C -8.9 °C 33843.1 hPa West 23.3 km/h 44.1 km/h 76 % 0 mm 1000 W/m2
15:20 -6.6 °C -9.4 °C 33832.9 hPa WNW 15.6 km/h 44.1 km/h 72 % 0 mm 874 W/m2
15:25 -6.6 °C -9.4 °C 33843.1 hPa West 7.7 km/h 44.1 km/h 73 % 0 mm 795 W/m2
15:30 -6.8 °C -9.4 °C 33832.9 hPa West 25.9 km/h 49.2 km/h 74 % 0 mm 684 W/m2
15:40 -6.5 °C -9.8 °C 33843.1 hPa WSW 20.8 km/h 49.2 km/h 69 % 0 mm 694 W/m2
15:45 -6.4 °C -9.4 °C 33843.1 hPa WSW 10.3 km/h 44.1 km/h 71 % 0 mm 1034 W/m2
15:50 -6.3 °C -9.5 °C 33843.1 hPa WSW 12.9 km/h 49.2 km/h 70 % 0 mm 967 W/m2
15:55 -6.6 °C -9.5 °C 33843.1 hPa SSW 18.2 km/h 49.2 km/h 72 % 0 mm 870 W/m2
16:00 -6.6 °C -9.4 °C 33832.9 hPa WNW 15.6 km/h 49.2 km/h 73 % 0 mm 937 W/m2
16:05 -6.7 °C -9.4 °C 33832.9 hPa WNW 15.6 km/h 49.2 km/h 73 % 0 mm 947 W/m2
16:10 -6.6 °C -9.4 °C 33832.9 hPa WSW 20.8 km/h 54.4 km/h 73 % 0 mm 983 W/m2
16:15 -6.6 °C -9.4 °C 33832.9 hPa WSW 20.8 km/h 54.4 km/h 72 % 0 mm 290 W/m2
16:25 -6.2 °C -9.4 °C 33832.9 hPa WNW 18.2 km/h 46.7 km/h 69 % 0 mm 831 W/m2
16:30 -6.4 °C -9.8 °C 33832.9 hPa West 10.3 km/h 49.2 km/h 68 % 0 mm 900 W/m2
16:35 -6.4 °C -9.3 °C 33832.9 hPa West 33.6 km/h 49.2 km/h 72 % 0 mm 853 W/m2
16:40 -6.5 °C -9.9 °C 33843.1 hPa SSE 5.1 km/h 49.2 km/h 68 % 0 mm 828 W/m2
16:45 -6.4 °C -9.8 °C 33843.1 hPa WNW 31.1 km/h 51.8 km/h 68 % 0 mm 867 W/m2
16:50 -6.5 °C -10.1 °C 33843.1 hPa WSW 25.9 km/h 51.8 km/h 67 % 0 mm 635 W/m2
16:55 -6.6 °C -9.7 °C 33843.1 hPa NW 36.2 km/h 51.8 km/h 71 % 0 mm 439 W/m2
17:00 -6.9 °C -9.9 °C 33843.1 hPa West 20.8 km/h 59.5 km/h 71 % 0 mm 664 W/m2
17:10 -6.5 °C -9.7 °C 33843.1 hPa NW 33.6 km/h 49.2 km/h 70 % 0 mm 824 W/m2
17:15 -6.4 °C -9.6 °C 33843.1 hPa WNW 7.7 km/h 54.4 km/h 70 % 0 mm 798 W/m2
17:20 -6.3 °C -9.6 °C 33843.1 hPa SSW 15.6 km/h 54.4 km/h 69 % 0 mm 828 W/m2
17:25 -6.4 °C -9.7 °C 33843.1 hPa WNW 31.1 km/h 49.2 km/h 69 % 0 mm 666 W/m2
17:30 -6.6 °C -9.8 °C 33843.1 hPa West 38.8 km/h 49.2 km/h 70 % 0 mm 239 W/m2
17:35 -7.3 °C -10 °C 33843.1 hPa West 25.9 km/h 44.1 km/h 73 % 0 mm 67 W/m2
17:40 -7.6 °C -9.9 °C 33843.1 hPa WNW 31.1 km/h 46.7 km/h 77 % 0 mm 97 W/m2
17:45 -7.9 °C -10.2 °C 33843.1 hPa NW 20.8 km/h 49.2 km/h 77 % 0 mm 135 W/m2
17:55 -8.1 °C -10.2 °C 33856.6 hPa NW 28.5 km/h 51.8 km/h 78 % 0 mm 130 W/m2
18:00 -8.1 °C -10.1 °C 33843.1 hPa SW 10.3 km/h 51.8 km/h 79 % 0 mm 123 W/m2
18:05 -8.1 °C -10.1 °C 33843.1 hPa West 5.1 km/h 46.7 km/h 80 % 0 mm 123 W/m2
18:10 -8.1 °C -10 °C 33843.1 hPa WNW 36.2 km/h 46.7 km/h 80 % 0 mm 111 W/m2
18:15 -8.2 °C -10.1 °C 33843.1 hPa West 31.1 km/h 49.2 km/h 80 % 0 mm 81 W/m2
18:20 -8.2 °C -10.1 °C 33843.1 hPa West 31.1 km/h 49.2 km/h 81 % 0 mm 91 W/m2
18:25 -8.3 °C -10 °C 33843.1 hPa WNW 12.9 km/h 49.2 km/h 82 % 0 mm 88 W/m2
18:30 -8.4 °C -10 °C 33843.1 hPa West 33.6 km/h 33.6 km/h 83 % 0 mm 95 W/m2
18:40 -8.5 °C -10.2 °C 33843.1 hPa West 23.3 km/h 49.2 km/h 82 % 0 mm 95 W/m2
18:45 -8.4 °C -10.2 °C 33843.1 hPa WSW 5.1 km/h 49.2 km/h 82 % 0 mm 93 W/m2
18:50 -8.3 °C -9.9 °C 33843.1 hPa WNW 33.6 km/h 41.4 km/h 83 % 0 mm 102 W/m2
18:55 -8.3 °C -10 °C 33843.1 hPa West 23.3 km/h 49.2 km/h 82 % 0 mm 132 W/m2
19:00 -8.2 °C -9.9 °C 33843.1 hPa West 10.3 km/h 49.2 km/h 82 % 0 mm 181 W/m2
19:05 -7.9 °C -9.9 °C 33843.1 hPa WNW 18.2 km/h 46.7 km/h 80 % 0 mm 315 W/m2
19:10 -7.9 °C -9.9 °C 33843.1 hPa West 28.5 km/h 49.2 km/h 79 % 0 mm 302 W/m2
19:15 -7.6 °C -9.8 °C 33843.1 hPa NW 15.6 km/h 49.2 km/h 78 % 0 mm 580 W/m2
19:25 -7.9 °C -10.1 °C 33843.1 hPa West 15.6 km/h 46.7 km/h 78 % 0 mm 195 W/m2
19:30 -7.9 °C -9.9 °C 33843.1 hPa West 10.3 km/h 44.1 km/h 80 % 0 mm 185 W/m2
19:35 -8.1 °C -10 °C 33856.6 hPa WNW 20.8 km/h 36.2 km/h 80 % 0 mm 176 W/m2
19:40 -7.9 °C -10 °C 33856.6 hPa NNW 20.8 km/h 36.2 km/h 79 % 0 mm 216 W/m2
19:45 -8.1 °C -10.1 °C 33843.1 hPa West 20.8 km/h 41.4 km/h 80 % 0 mm 244 W/m2
19:50 -8.2 °C -10.2 °C 33856.6 hPa WNW 18.2 km/h 51.8 km/h 80 % 0 mm 176 W/m2
19:55 -8.2 °C -10.1 °C 33856.6 hPa NW 12.9 km/h 51.8 km/h 81 % 0 mm 98 W/m2
20:00 -8.4 °C -10.2 °C 33856.6 hPa WNW 28.5 km/h 46.7 km/h 82 % 0 mm 90 W/m2
20:10 -8.7 °C -10.3 °C 33856.6 hPa WSW 25.9 km/h 38.8 km/h 82 % 0 mm 62 W/m2
20:15 -8.8 °C -10.4 °C 33856.6 hPa WSW 20.8 km/h 38.8 km/h 83 % 0 mm 54 W/m2
20:20 -8.8 °C -10.4 °C 33856.6 hPa WNW 12.9 km/h 38.8 km/h 83 % 0 mm 47 W/m2
20:25 -8.9 °C -10.4 °C 33856.6 hPa NW 12.9 km/h 38.8 km/h 84 % 0 mm 28 W/m2
20:30 -8.9 °C -10.2 °C 33856.6 hPa West 18.2 km/h 31.1 km/h 86 % 0 mm 12 W/m2
20:35 -9 °C -10.2 °C 33856.6 hPa WNW 12.9 km/h 36.2 km/h 87 % 0 mm 49 W/m2
20:40 -9.2 °C -10.2 °C 33856.6 hPa West 10.3 km/h 36.2 km/h 89 % 7.62 mm 81 W/m2
20:45 -9.1 °C -10.1 °C 33856.6 hPa NW 20.8 km/h 38.8 km/h 90 % 7.62 mm 67 W/m2
20:55 -9.2 °C -10.1 °C 33866.8 hPa West 28.5 km/h 38.8 km/h 90 % 7.62 mm 40 W/m2
21:00 -9.3 °C -10.3 °C 33866.8 hPa West 28.5 km/h 38.8 km/h 89 % 7.62 mm 65 W/m2
21:05 -9.2 °C -10.2 °C 33866.8 hPa WNW 7.7 km/h 36.2 km/h 89 % 7.62 mm 53 W/m2
21:10 -9.2 °C -10.2 °C 33866.8 hPa WNW 18.2 km/h 33.6 km/h 89 % 7.62 mm 23 W/m2
21:15 -9.2 °C -10.2 °C 33866.8 hPa NW 15.6 km/h 41.4 km/h 89 % 7.62 mm 19 W/m2
21:20 -9.3 °C -10.3 °C 33866.8 hPa West 18.2 km/h 41.4 km/h 88 % 7.62 mm 21 W/m2
21:25 -9.3 °C -10.3 °C 33866.8 hPa Calm   33.6 km/h 89 % 7.62 mm 19 W/m2
21:30 -9.3 °C -10.3 °C 33866.8 hPa NW 18.2 km/h 33.6 km/h 89 % 7.62 mm 21 W/m2
21:40 -9.3 °C -10.3 °C 33866.8 hPa WNW 12.9 km/h 36.2 km/h 89 % 0 mm 7 W/m2
21:45 -9.3 °C -10.3 °C 33880.3 hPa WNW 15.6 km/h 36.2 km/h 89 % 0 mm 5 W/m2
21:50 -9.3 °C -10.3 °C 33880.3 hPa NW 15.6 km/h 36.2 km/h 88 % 0 mm 0 W/m2
21:55 -9.3 °C -10.3 °C 33880.3 hPa WNW 12.9 km/h 36.2 km/h 88 % 0 mm 0 W/m2
22:00 -9.3 °C -10.4 °C 33880.3 hPa NNW 23.3 km/h 38.8 km/h 87 % 0 mm 0 W/m2
22:05 -9.3 °C -10.5 °C 33880.3 hPa NW 20.8 km/h 38.8 km/h 87 % 0 mm 0 W/m2
22:10 -9.3 °C -10.4 °C 33880.3 hPa West 5.1 km/h 36.2 km/h 88 % 0 mm 0 W/m2
22:15 -9.3 °C -10.4 °C 33890.5 hPa NW 23.3 km/h 31.1 km/h 88 % 0 mm 0 W/m2
22:25 -9.3 °C -10.3 °C 33890.5 hPa WNW 12.9 km/h 28.5 km/h 89 % 0 mm 0 W/m2
22:35 -9.3 °C -10.4 °C 33890.5 hPa NNW 12.9 km/h 36.2 km/h 88 % 0 mm 0 W/m2
22:40 -9.3 °C -10.4 °C 33890.5 hPa West 18.2 km/h 36.2 km/h 88 % 0 mm 0 W/m2
22:45 -9.3 °C -10.5 °C 33890.5 hPa WNW 7.7 km/h 36.2 km/h 87 % 0 mm 0 W/m2
22:50 -9.3 °C -10.5 °C 33890.5 hPa West 18.2 km/h 33.6 km/h 87 % 0 mm 0 W/m2
22:55 -9.3 °C -10.5 °C 33900.6 hPa West 12.9 km/h 36.2 km/h 87 % 0 mm 0 W/m2
23:00 -9.3 °C -10.6 °C 33900.6 hPa WNW 23.3 km/h 44.1 km/h 86 % 0 mm 0 W/m2
23:10 -9.3 °C -10.6 °C 33900.6 hPa Calm   31.1 km/h 86 % 0 mm 0 W/m2
23:15 -9.3 °C -10.5 °C 33900.6 hPa WNW 10.3 km/h 31.1 km/h 87 % 0 mm 0 W/m2
23:20 -9.3 °C -10.6 °C 33900.6 hPa WNW 10.3 km/h 41.4 km/h 86 % 0 mm 0 W/m2
23:25 -9.3 °C -10.6 °C 33900.6 hPa WNW 25.9 km/h 41.4 km/h 86 % 0 mm 0 W/m2
23:30 -9.3 °C -10.6 °C 33914.2 hPa NW 12.9 km/h 38.8 km/h 86 % 0 mm 0 W/m2
23:35 -9.2 °C -10.5 °C 33900.6 hPa West 18.2 km/h 38.8 km/h 86 % 0 mm 0 W/m2
23:40 -9.2 °C -10.5 °C 33900.6 hPa WNW 28.5 km/h 38.8 km/h 86 % 0 mm 0 W/m2
23:45 -9.2 °C -10.5 °C 33914.2 hPa West 7.7 km/h 38.8 km/h 86 % 0 mm 0 W/m2
23:55 -9.3 °C -10.6 °C 33914.2 hPa WNW 12.9 km/h 31.1 km/h 86 % 0 mm 0 W/m2
Avec l'autorisation de Weather Underground - 1.5 mb